Time;durP1;ratioP1;P1;durP2;ratioP2;P2;SDS_P1;SDS_P2;PMS_P1;PMS_P2;Temp;Humidity;BMP_temperature;BMP_pressure;BME280_temperature;BME280_humidity;BME280_pressure;Samples;Min_cycle;Max_cycle;Signal;HPM_P1;HPM_P2
2022/07/22 00:01:33;;;;;;;;;;;16.30;99.90;;;;;;5120898;27;19945;-78
2022/07/22 00:03:59;;;;;;;;;;;16.30;99.90;;;;;;5121018;27;19923;-78
2022/07/22 00:06:25;;;;;;;;;;;16.30;99.90;;;;;;5138043;27;20372;-78
2022/07/22 00:08:51;;;;;;;;;;;16.30;99.90;;;;;;5137539;27;19923;-78
2022/07/22 00:11:16;;;;;;;;;;;16.30;99.90;;;;;;5120840;27;19930;-77
2022/07/22 00:13:42;;;;;;;;;;;16.30;99.90;;;;;;5137765;27;19923;-78
2022/07/22 00:16:07;;;;;;;;;;;16.30;99.90;;;;;;5116920;27;19977;-77
2022/07/22 00:18:33;;;;;;;;;;;16.30;99.90;;;;;;5134336;27;19934;-84
2022/07/22 00:20:58;;;;;;;;;;;16.30;99.90;;;;;;5117295;27;19972;-77
2022/07/22 00:23:24;;;;;;;;;;;16.20;99.90;;;;;;5116946;27;19934;-76
2022/07/22 00:25:49;;;;;;;;;;;16.20;99.90;;;;;;5116642;27;19973;-78
2022/07/22 00:28:15;;;;;;;;;;;16.30;99.90;;;;;;5099932;27;19924;-78
2022/07/22 00:30:41;;;;;;;;;;;16.20;99.90;;;;;;5116882;27;20435;-78
2022/07/22 00:33:06;;;;;;;;;;;16.20;99.90;;;;;;5134090;27;19930;-77
2022/07/22 00:35:32;;;;;;;;;;;16.20;99.90;;;;;;5116999;27;20021;-77
2022/07/22 00:37:57;;;;;;;;;;;16.20;99.90;;;;;;5116395;27;19924;-77
2022/07/22 00:40:23;;;;;;;;;;;16.20;99.90;;;;;;5134234;27;19923;-78
2022/07/22 00:42:49;;;;;;;;;;;16.20;99.90;;;;;;5116692;27;20347;-78
2022/07/22 00:45:14;;;;;;;;;;;16.20;99.90;;;;;;5116941;27;20015;-78
2022/07/22 00:47:40;;;;;;;;;;;16.20;99.90;;;;;;5133368;27;19983;-77
2022/07/22 00:50:06;;;;;;;;;;;16.20;99.90;;;;;;5133900;27;19977;-78
2022/07/22 00:52:32;;;;;;;;;;;16.20;99.90;;;;;;5116906;27;19930;-77
2022/07/22 00:54:59;;;;;;;;;;;16.20;99.90;;;;;;5133244;27;19923;-78
2022/07/22 00:57:24;;;;;;;;;;;16.20;99.90;;;;;;5116615;27;19927;-77
2022/07/22 00:59:50;;;;;;;;;;;16.20;99.90;;;;;;5133542;27;20359;-78
2022/07/22 01:02:16;;;;;;;;;;;16.20;99.90;;;;;;5116661;27;19931;-77
2022/07/22 01:04:41;;;;;;;;;;;16.20;99.90;;;;;;5116435;27;20286;-78
2022/07/22 01:07:07;;;;;;;;;;;16.20;99.90;;;;;;5116492;27;20014;-78
2022/07/22 01:09:33;;;;;;;;;;;16.20;99.90;;;;;;5099363;28;19930;-78
2022/07/22 01:11:58;;;;;;;;;;;16.20;99.90;;;;;;5116261;28;19924;-78
2022/07/22 01:14:24;;;;;;;;;;;16.20;99.90;;;;;;5135023;27;19927;-77
2022/07/22 01:16:49;;;;;;;;;;;16.20;99.90;;;;;;5136981;27;20010;-79
2022/07/22 01:19:15;;;;;;;;;;;16.10;99.90;;;;;;5136960;27;20354;-78
2022/07/22 01:21:40;;;;;;;;;;;16.10;99.90;;;;;;5136829;27;19975;-84
2022/07/22 01:24:06;;;;;;;;;;;16.10;99.90;;;;;;5136594;27;19930;-78
2022/07/22 01:26:33;;;;;;;;;;;16.10;99.90;;;;;;5119756;27;19923;-78
2022/07/22 01:28:59;;;;;;;;;;;16.10;99.90;;;;;;5119272;27;20359;-78
2022/07/22 01:31:24;;;;;;;;;;;16.10;99.90;;;;;;5136767;27;19934;-77
2022/07/22 01:33:50;;;;;;;;;;;16.10;99.90;;;;;;5119170;27;19930;-79
2022/07/22 01:36:15;;;;;;;;;;;16.10;99.90;;;;;;5136506;27;19931;-78
2022/07/22 01:38:41;;;;;;;;;;;16.00;99.90;;;;;;5119352;27;19977;-78
2022/07/22 01:41:07;;;;;;;;;;;16.00;99.90;;;;;;5119543;27;19978;-78
2022/07/22 01:43:32;;;;;;;;;;;16.00;99.90;;;;;;5119643;27;20359;-78
2022/07/22 01:45:58;;;;;;;;;;;16.00;99.90;;;;;;5102079;27;19954;-78
2022/07/22 01:48:23;;;;;;;;;;;16.00;99.90;;;;;;5136436;27;19975;-78
2022/07/22 01:50:50;;;;;;;;;;;16.00;99.90;;;;;;5136623;27;19939;-77
2022/07/22 01:53:15;;;;;;;;;;;16.10;99.90;;;;;;5119484;27;20017;-77
2022/07/22 01:55:41;;;;;;;;;;;16.10;99.90;;;;;;5119495;27;19985;-78
2022/07/22 01:58:07;;;;;;;;;;;16.10;99.90;;;;;;5136521;27;19971;-78
2022/07/22 02:00:32;;;;;;;;;;;16.00;99.90;;;;;;5136214;27;20375;-78
2022/07/22 02:02:58;;;;;;;;;;;16.00;99.90;;;;;;5119285;27;19991;-79
2022/07/22 02:05:24;;;;;;;;;;;16.00;99.90;;;;;;5119431;27;20228;-78
2022/07/22 02:07:50;;;;;;;;;;;15.90;99.90;;;;;;5121749;27;19923;-80
2022/07/22 02:10:15;;;;;;;;;;;15.90;99.90;;;;;;5123143;27;20019;-78
2022/07/22 02:12:41;;;;;;;;;;;15.90;99.90;;;;;;5123321;27;20017;-78
2022/07/22 02:15:08;;;;;;;;;;;15.90;99.90;;;;;;5122582;27;19938;-78
2022/07/22 02:17:33;;;;;;;;;;;15.90;99.90;;;;;;5140320;27;19926;-78
2022/07/22 02:19:59;;;;;;;;;;;15.90;99.90;;;;;;5122833;27;20014;-78
2022/07/22 02:22:25;;;;;;;;;;;15.90;99.90;;;;;;5140211;27;19923;-78
2022/07/22 02:24:50;;;;;;;;;;;15.90;99.90;;;;;;5140008;27;19923;-78
2022/07/22 02:27:16;;;;;;;;;;;15.90;99.90;;;;;;5123036;27;19976;-78
2022/07/22 02:29:41;;;;;;;;;;;15.90;99.90;;;;;;5122591;27;19923;-78
2022/07/22 02:32:07;;;;;;;;;;;15.90;99.90;;;;;;5139830;27;19930;-78
2022/07/22 02:34:33;;;;;;;;;;;16.00;99.90;;;;;;5122801;27;20039;-79
2022/07/22 02:36:59;;;;;;;;;;;16.00;99.90;;;;;;5122588;27;19930;-78
2022/07/22 02:39:24;;;;;;;;;;;16.00;99.90;;;;;;5122844;27;19938;-79
2022/07/22 02:41:50;;;;;;;;;;;16.00;99.90;;;;;;5122675;27;19923;-79
2022/07/22 02:44:15;;;;;;;;;;;16.00;99.90;;;;;;5139565;27;20021;-79
2022/07/22 02:46:41;;;;;;;;;;;16.00;99.90;;;;;;5139730;27;19990;-78
2022/07/22 02:49:06;;;;;;;;;;;16.00;99.90;;;;;;5122082;27;19923;-78
2022/07/22 02:51:32;;;;;;;;;;;16.00;99.90;;;;;;5122570;27;19923;-78
2022/07/22 02:53:58;;;;;;;;;;;16.00;99.90;;;;;;5139376;27;20279;-78
2022/07/22 02:56:23;;;;;;;;;;;16.00;99.90;;;;;;5139522;27;20064;-78
2022/07/22 02:58:51;;;;;;;;;;;15.90;99.90;;;;;;5139538;27;19930;-78
2022/07/22 03:01:17;;;;;;;;;;;15.90;99.90;;;;;;5122780;27;19985;-78
2022/07/22 03:03:43;;;;;;;;;;;15.90;99.90;;;;;;5139488;27;19978;-78
2022/07/22 03:06:08;;;;;;;;;;;15.90;99.90;;;;;;5139072;27;19977;-78
2022/07/22 03:08:34;;;;;;;;;;;15.90;99.90;;;;;;5122079;27;19934;-78
2022/07/22 03:10:59;;;;;;;;;;;15.90;99.90;;;;;;5139098;27;20313;-78
2022/07/22 03:13:25;;;;;;;;;;;15.90;99.90;;;;;;5122081;27;19992;-78
2022/07/22 03:15:51;;;;;;;;;;;15.90;99.90;;;;;;5138844;27;19949;-78
2022/07/22 03:18:16;;;;;;;;;;;15.90;99.90;;;;;;5138414;27;19945;-79
2022/07/22 03:20:42;;;;;;;;;;;15.90;99.90;;;;;;5121967;27;19946;-78
2022/07/22 03:23:07;;;;;;;;;;;15.90;99.90;;;;;;5138854;27;20002;-79
2022/07/22 03:25:34;;;;;;;;;;;15.90;99.90;;;;;;5138976;27;20389;-78
2022/07/22 03:27:59;;;;;;;;;;;15.80;99.90;;;;;;5121544;27;19923;-78
2022/07/22 03:30:25;;;;;;;;;;;15.90;99.90;;;;;;5121777;27;19931;-78
2022/07/22 03:32:50;;;;;;;;;;;15.80;99.90;;;;;;5121600;27;19923;-79
2022/07/22 03:35:16;;;;;;;;;;;15.80;99.90;;;;;;5121504;27;19962;-78
2022/07/22 03:37:42;;;;;;;;;;;15.90;99.90;;;;;;5138422;27;19923;-78
2022/07/22 03:40:08;;;;;;;;;;;15.80;99.90;;;;;;5121430;27;19923;-78
2022/07/22 03:42:33;;;;;;;;;;;15.80;99.90;;;;;;5138627;27;20026;-78
2022/07/22 03:44:59;;;;;;;;;;;15.80;99.90;;;;;;5121287;27;19966;-79
2022/07/22 03:47:24;;;;;;;;;;;15.90;99.90;;;;;;5138172;27;19923;-78
2022/07/22 03:49:50;;;;;;;;;;;15.90;99.90;;;;;;5138532;27;19931;-78
2022/07/22 03:52:16;;;;;;;;;;;15.90;99.90;;;;;;5121180;27;19923;-79
2022/07/22 03:54:42;;;;;;;;;;;15.90;99.90;;;;;;5138057;27;20018;-77
2022/07/22 03:57:08;;;;;;;;;;;15.90;99.90;;;;;;5104043;27;19923;-79
2022/07/22 03:59:33;;;;;;;;;;;15.90;99.90;;;;;;5121174;27;19949;-78
2022/07/22 04:01:59;;;;;;;;;;;15.90;99.90;;;;;;5121033;27;19946;-86
2022/07/22 04:04:24;;;;;;;;;;;15.90;99.90;;;;;;5121111;27;19923;-78
2022/07/22 04:06:53;;;;;;;;;;;15.80;99.90;;;;;;5138205;27;20014;-79
2022/07/22 04:09:19;;;;;;;;;;;15.90;99.90;;;;;;5137553;27;19923;-79
2022/07/22 04:11:45;;;;;;;;;;;15.90;99.90;;;;;;5120464;27;19927;-78
2022/07/22 04:14:10;;;;;;;;;;;15.90;99.90;;;;;;5137829;27;19969;-79
2022/07/22 04:16:36;;;;;;;;;;;15.80;99.90;;;;;;5137527;27;19923;-78
2022/07/22 04:19:02;;;;;;;;;;;15.90;99.90;;;;;;5137731;27;19930;-80
2022/07/22 04:21:28;;;;;;;;;;;15.90;99.90;;;;;;5138018;27;19930;-79
2022/07/22 04:23:54;;;;;;;;;;;15.90;99.90;;;;;;5120780;27;19927;-79
2022/07/22 04:26:19;;;;;;;;;;;15.90;99.90;;;;;;5137664;27;19927;-79
2022/07/22 04:28:45;;;;;;;;;;;15.90;99.90;;;;;;5120164;27;19923;-79
2022/07/22 04:31:10;;;;;;;;;;;15.90;99.90;;;;;;5102607;27;19923;-79
2022/07/22 04:33:36;;;;;;;;;;;16.00;99.90;;;;;;5120605;27;19923;-78
2022/07/22 04:36:02;;;;;;;;;;;16.00;99.90;;;;;;5137629;27;19923;-79
2022/07/22 04:38:27;;;;;;;;;;;16.00;99.90;;;;;;5120323;27;19923;-78
2022/07/22 04:40:53;;;;;;;;;;;16.00;99.90;;;;;;5137546;27;19929;-78
2022/07/22 04:43:18;;;;;;;;;;;16.00;99.90;;;;;;5120193;27;19930;-78
2022/07/22 04:45:44;;;;;;;;;;;16.00;99.90;;;;;;5137415;27;20371;-78
2022/07/22 04:48:10;;;;;;;;;;;16.00;99.90;;;;;;5119971;27;19945;-79
2022/07/22 04:50:36;;;;;;;;;;;16.00;99.90;;;;;;5137601;27;19923;-78
2022/07/22 04:53:01;;;;;;;;;;;16.00;99.90;;;;;;5120172;27;19946;-79
2022/07/22 04:55:27;;;;;;;;;;;16.00;99.90;;;;;;5103095;27;20363;-78
2022/07/22 04:57:52;;;;;;;;;;;16.00;99.90;;;;;;5120148;27;20282;-79
2022/07/22 05:00:18;;;;;;;;;;;16.10;99.90;;;;;;5136746;27;19923;-78
2022/07/22 05:02:43;;;;;;;;;;;16.10;99.90;;;;;;5120036;27;19927;-78
2022/07/22 05:05:09;;;;;;;;;;;16.10;99.90;;;;;;5136944;27;19946;-79
2022/07/22 05:07:35;;;;;;;;;;;16.10;99.90;;;;;;5119882;27;19996;-78
2022/07/22 05:10:00;;;;;;;;;;;16.20;99.90;;;;;;5120019;27;19924;-78
2022/07/22 05:12:26;;;;;;;;;;;16.20;99.90;;;;;;5119784;27;20363;-78
2022/07/22 05:14:51;;;;;;;;;;;16.20;99.90;;;;;;5136555;27;19923;-79
2022/07/22 05:17:17;;;;;;;;;;;16.20;99.90;;;;;;5119713;27;19929;-78
2022/07/22 05:19:43;;;;;;;;;;;16.20;99.90;;;;;;5136985;27;20327;-78
2022/07/22 05:22:08;;;;;;;;;;;16.20;99.90;;;;;;5136783;27;19974;-86
2022/07/22 05:24:34;;;;;;;;;;;16.20;99.90;;;;;;5119804;27;19935;-78
2022/07/22 05:27:00;;;;;;;;;;;16.30;99.90;;;;;;5119786;27;20321;-79
2022/07/22 05:29:26;;;;;;;;;;;16.30;99.90;;;;;;5136116;27;19988;-78
2022/07/22 05:31:52;;;;;;;;;;;16.30;99.90;;;;;;5119772;27;19923;-79
2022/07/22 05:34:17;;;;;;;;;;;16.30;99.90;;;;;;5102556;27;19930;-79
2022/07/22 05:36:43;;;;;;;;;;;16.40;99.90;;;;;;5136852;27;19946;-78
2022/07/22 05:39:08;;;;;;;;;;;16.40;99.90;;;;;;5136836;27;20274;-78
2022/07/22 05:41:34;;;;;;;;;;;16.40;99.90;;;;;;5121773;27;19927;-78
2022/07/22 05:43:59;;;;;;;;;;;16.40;99.90;;;;;;5141015;27;19930;-79
2022/07/22 05:46:25;;;;;;;;;;;16.50;99.90;;;;;;5123547;27;20442;-78
2022/07/22 05:48:51;;;;;;;;;;;16.50;99.90;;;;;;5123583;27;19987;-79
2022/07/22 05:51:16;;;;;;;;;;;16.50;99.90;;;;;;5140603;27;19923;-79
2022/07/22 05:53:43;;;;;;;;;;;16.50;99.90;;;;;;5140806;27;19971;-78
2022/07/22 05:56:10;;;;;;;;;;;16.50;99.90;;;;;;5123679;27;19923;-79
2022/07/22 05:58:37;;;;;;;;;;;16.60;99.90;;;;;;5140534;27;20099;-79
2022/07/22 06:01:02;;;;;;;;;;;16.70;99.90;;;;;;5123584;27;19923;-79
2022/07/22 06:03:28;;;;;;;;;;;16.70;99.90;;;;;;5140358;27;19972;-79
2022/07/22 06:05:53;;;;;;;;;;;16.70;99.90;;;;;;5140529;27;19927;-79
2022/07/22 06:08:19;;;;;;;;;;;16.70;99.90;;;;;;5140105;27;19978;-79
2022/07/22 06:10:44;;;;;;;;;;;16.70;99.90;;;;;;5123450;27;19923;-78
2022/07/22 06:13:10;;;;;;;;;;;16.70;99.90;;;;;;5140494;27;19927;-78
2022/07/22 06:15:36;;;;;;;;;;;16.70;99.90;;;;;;5136271;27;19927;-79
2022/07/22 06:18:01;;;;;;;;;;;16.70;99.90;;;;;;5119696;27;19966;-79
2022/07/22 06:20:27;;;;;;;;;;;16.70;99.90;;;;;;5136663;27;20298;-79
2022/07/22 06:22:52;;;;;;;;;;;16.70;99.90;;;;;;5119586;27;19975;-79
2022/07/22 06:25:18;;;;;;;;;;;16.70;99.90;;;;;;5136260;27;19930;-79
2022/07/22 06:27:43;;;;;;;;;;;16.70;99.90;;;;;;5119375;27;19927;-79
2022/07/22 06:30:09;;;;;;;;;;;16.70;99.90;;;;;;5119488;27;19946;-79
2022/07/22 06:32:35;;;;;;;;;;;16.60;99.90;;;;;;5119334;27;19946;-78
2022/07/22 06:35:01;;;;;;;;;;;16.60;99.90;;;;;;5136508;27;20356;-79
2022/07/22 06:37:27;;;;;;;;;;;16.60;99.90;;;;;;5136412;27;19927;-79
2022/07/22 06:39:52;;;;;;;;;;;16.60;99.90;;;;;;5119324;27;19931;-79
2022/07/22 06:42:18;;;;;;;;;;;16.60;99.90;;;;;;5135880;27;19923;-83
2022/07/22 06:44:43;;;;;;;;;;;16.70;99.90;;;;;;5119129;27;19946;-79
2022/07/22 06:47:09;;;;;;;;;;;16.70;99.90;;;;;;5136226;27;19931;-79
2022/07/22 06:49:35;;;;;;;;;;;16.70;99.90;;;;;;5101599;27;20010;-79
2022/07/22 06:52:01;;;;;;;;;;;16.80;99.90;;;;;;5101672;27;19976;-79
2022/07/22 06:54:27;;;;;;;;;;;16.80;99.90;;;;;;5135850;27;19924;-79
2022/07/22 06:56:52;;;;;;;;;;;16.90;99.90;;;;;;5118939;27;20423;-79
2022/07/22 06:59:18;;;;;;;;;;;16.90;99.90;;;;;;5136072;27;19923;-79
2022/07/22 07:01:44;;;;;;;;;;;17.00;99.90;;;;;;5135874;27;20053;-79
2022/07/22 07:04:09;;;;;;;;;;;17.00;99.90;;;;;;5135939;27;19977;-79
2022/07/22 07:06:35;;;;;;;;;;;17.00;99.90;;;;;;5135803;27;19923;-79
2022/07/22 07:09:01;;;;;;;;;;;17.10;99.90;;;;;;5118489;27;19923;-79
2022/07/22 07:11:27;;;;;;;;;;;17.10;99.90;;;;;;5135364;27;20299;-78
2022/07/22 07:13:52;;;;;;;;;;;17.10;99.90;;;;;;5135725;27;19972;-79
2022/07/22 07:16:18;;;;;;;;;;;17.00;99.90;;;;;;5118000;27;20274;-79
2022/07/22 07:18:44;;;;;;;;;;;17.00;99.90;;;;;;5135433;27;19934;-78
2022/07/22 07:21:09;;;;;;;;;;;17.00;99.90;;;;;;5135702;27;19923;-78
2022/07/22 07:23:35;;;;;;;;;;;17.00;99.90;;;;;;5117899;27;20336;-79
2022/07/22 07:26:00;;;;;;;;;;;17.10;99.90;;;;;;5118484;27;19977;-78
2022/07/22 07:28:26;;;;;;;;;;;17.10;99.90;;;;;;5118028;27;19924;-79
2022/07/22 07:30:52;;;;;;;;;;;17.10;99.90;;;;;;5135490;27;19930;-79
2022/07/22 07:33:17;;;;;;;;;;;17.30;99.90;;;;;;5135390;27;19977;-79
2022/07/22 07:35:43;;;;;;;;;;;17.30;99.90;;;;;;5118071;27;20341;-79
2022/07/22 07:38:08;;;;;;;;;;;17.40;99.90;;;;;;5118195;27;20005;-79
2022/07/22 07:40:34;;;;;;;;;;;17.40;99.90;;;;;;5101017;27;19934;-79
2022/07/22 07:43:00;;;;;;;;;;;17.50;99.90;;;;;;5101027;27;19948;-79
2022/07/22 07:45:25;;;;;;;;;;;17.50;99.90;;;;;;5117879;27;19947;-80
2022/07/22 07:47:51;;;;;;;;;;;17.60;99.90;;;;;;5118011;27;19930;-80
2022/07/22 07:50:16;;;;;;;;;;;17.60;99.90;;;;;;5134807;27;20019;-79
2022/07/22 07:52:44;;;;;;;;;;;17.70;99.90;;;;;;5134878;27;19927;-79
2022/07/22 07:55:09;;;;;;;;;;;17.70;99.90;;;;;;5117788;27;20252;-79
2022/07/22 07:57:36;;;;;;;;;;;17.80;99.90;;;;;;5134737;27;19931;-79
2022/07/22 08:00:02;;;;;;;;;;;17.80;99.90;;;;;;5117769;27;19927;-79
2022/07/22 08:02:27;;;;;;;;;;;17.80;99.90;;;;;;5117546;27;19934;-79
2022/07/22 08:04:53;;;;;;;;;;;17.70;99.90;;;;;;5116596;27;19923;-79
2022/07/22 08:07:19;;;;;;;;;;;17.70;99.90;;;;;;5117572;27;20382;-79
2022/07/22 08:09:44;;;;;;;;;;;17.60;99.90;;;;;;5116981;27;20311;-79
2022/07/22 08:12:10;;;;;;;;;;;17.60;99.90;;;;;;5134607;27;19923;-79
2022/07/22 08:14:35;;;;;;;;;;;17.50;99.90;;;;;;5118282;27;20010;-78
2022/07/22 08:17:01;;;;;;;;;;;17.50;99.90;;;;;;5137955;27;19923;-79
2022/07/22 08:19:26;;;;;;;;;;;17.40;99.90;;;;;;5120821;27;19930;-78
2022/07/22 08:21:52;;;;;;;;;;;17.30;99.90;;;;;;5120552;27;19930;-79
2022/07/22 08:24:18;;;;;;;;;;;17.30;99.90;;;;;;5137559;27;20283;-78
2022/07/22 08:26:43;;;;;;;;;;;17.30;99.90;;;;;;5120451;27;19930;-79
2022/07/22 08:29:09;;;;;;;;;;;17.30;99.90;;;;;;5137497;27;20302;-79
2022/07/22 08:31:35;;;;;;;;;;;17.30;99.90;;;;;;5137550;27;19927;-79
2022/07/22 08:34:02;;;;;;;;;;;17.30;99.90;;;;;;5120608;27;19930;-79
2022/07/22 08:36:27;;;;;;;;;;;17.40;99.90;;;;;;5120763;27;20294;-78
2022/07/22 08:38:53;;;;;;;;;;;17.50;99.90;;;;;;5137424;27;19923;-78
2022/07/22 08:41:20;;;;;;;;;;;17.50;99.90;;;;;;5120380;27;19984;-79
2022/07/22 08:43:46;;;;;;;;;;;17.60;99.90;;;;;;5137340;27;19929;-79
2022/07/22 08:46:12;;;;;;;;;;;17.70;99.90;;;;;;5120321;27;19948;-79
2022/07/22 08:48:38;;;;;;;;;;;17.80;99.90;;;;;;5120028;27;19923;-79
2022/07/22 08:51:05;;;;;;;;;;;17.90;99.90;;;;;;5120363;27;19938;-79
2022/07/22 08:53:31;;;;;;;;;;;18.00;99.90;;;;;;5120240;27;19930;-79
2022/07/22 08:55:58;;;;;;;;;;;18.10;99.90;;;;;;5137165;27;19923;-80
2022/07/22 08:58:24;;;;;;;;;;;18.10;99.90;;;;;;5103418;27;20107;-79
2022/07/22 09:01:07;;;;;;;;;;;18.10;99.90;;;;;;5119937;27;19930;-80
2022/07/22 09:03:32;;;;;;;;;;;18.10;99.90;;;;;;5120020;27;20453;-78
2022/07/22 09:05:58;;;;;;;;;;;18.10;99.90;;;;;;5137008;27;19970;-79
2022/07/22 09:08:24;;;;;;;;;;;18.00;99.90;;;;;;5119783;27;19927;-79
2022/07/22 09:10:50;;;;;;;;;;;18.10;99.90;;;;;;5119836;27;20387;-80
2022/07/22 09:13:18;;;;;;;;;;;18.10;99.90;;;;;;5137073;27;20011;-79
2022/07/22 09:15:48;;;;;;;;;;;18.20;99.90;;;;;;5118909;27;19923;-79
2022/07/22 09:18:13;;;;;;;;;;;18.20;99.90;;;;;;5136927;27;20006;-78
2022/07/22 09:20:39;;;;;;;;;;;18.20;99.90;;;;;;5119641;27;19978;-79
2022/07/22 09:23:09;;;;;;;;;;;18.20;99.90;;;;;;5119881;27;19927;-79
2022/07/22 09:25:36;;;;;;;;;;;18.20;99.90;;;;;;5136919;27;19949;-79
2022/07/22 09:28:04;;;;;;;;;;;18.30;99.90;;;;;;5136748;27;19929;-79
2022/07/22 09:30:30;;;;;;;;;;;18.40;99.90;;;;;;5136878;27;19923;-79
2022/07/22 09:32:56;;;;;;;;;;;18.40;99.90;;;;;;5119371;27;19924;-79
2022/07/22 09:35:22;;;;;;;;;;;18.40;99.90;;;;;;5119675;27;19966;-79
2022/07/22 09:37:51;;;;;;;;;;;18.50;99.90;;;;;;5136370;27;19923;-79
2022/07/22 09:40:18;;;;;;;;;;;18.60;99.90;;;;;;5119652;27;19923;-79
2022/07/22 09:42:45;;;;;;;;;;;18.60;99.90;;;;;;5119518;27;20280;-78
2022/07/22 09:45:10;;;;;;;;;;;18.70;99.90;;;;;;5136761;27;19970;-78
2022/07/22 09:47:36;;;;;;;;;;;18.80;99.90;;;;;;5119628;27;19982;-78
2022/07/22 09:50:02;;;;;;;;;;;18.80;99.90;;;;;;5119351;27;19927;-79
2022/07/22 09:52:27;;;;;;;;;;;18.90;99.90;;;;;;5119698;27;20282;-79
2022/07/22 09:54:53;;;;;;;;;;;19.00;99.90;;;;;;5136438;27;19966;-80
2022/07/22 09:57:19;;;;;;;;;;;19.00;99.90;;;;;;5119645;27;19923;-79
2022/07/22 09:59:44;;;;;;;;;;;19.10;99.90;;;;;;5136456;27;20387;-79
2022/07/22 10:02:10;;;;;;;;;;;19.20;99.90;;;;;;5136554;27;19946;-79
2022/07/22 10:04:36;;;;;;;;;;;19.40;99.90;;;;;;5136592;27;20011;-79
2022/07/22 10:07:02;;;;;;;;;;;19.50;99.90;;;;;;5102389;27;19923;-79
2022/07/22 10:09:28;;;;;;;;;;;19.60;99.90;;;;;;5119153;27;19923;-79
2022/07/22 10:11:54;;;;;;;;;;;19.50;99.90;;;;;;5136327;27;19930;-79
2022/07/22 10:14:20;;;;;;;;;;;19.70;99.90;;;;;;5136249;27;19927;-78
2022/07/22 10:16:46;;;;;;;;;;;20.00;99.90;;;;;;5118909;27;20246;-79
2022/07/22 10:19:12;;;;;;;;;;;20.20;99.90;;;;;;5119299;27;20010;-79
2022/07/22 10:21:38;;;;;;;;;;;20.10;99.90;;;;;;5136381;27;20376;-79
2022/07/22 10:24:06;;;;;;;;;;;20.20;99.90;;;;;;5136281;27;19930;-79
2022/07/22 10:26:47;;;;;;;;;;;20.30;99.90;;;;;;5136346;27;19923;-78
2022/07/22 10:29:28;;;;;;;;;;;20.30;99.90;;;;;;5139200;27;19927;-79
2022/07/22 10:32:12;;;;;;;;;;;20.20;99.90;;;;;;5139942;27;19923;-79
2022/07/22 10:34:38;;;;;;;;;;;20.30;99.90;;;;;;5122804;27;20007;-79
2022/07/22 10:37:04;;;;;;;;;;;20.30;99.90;;;;;;5122668;27;20383;-79
2022/07/22 10:39:29;;;;;;;;;;;20.10;99.90;;;;;;5122790;27;19923;-79
2022/07/22 10:41:55;;;;;;;;;;;20.20;99.90;;;;;;5139716;27;20307;-79
2022/07/22 10:44:39;;;;;;;;;;;20.10;99.90;;;;;;5122662;27;19923;-79
2022/07/22 10:47:05;;;;;;;;;;;20.00;99.90;;;;;;5139576;27;20025;-79
2022/07/22 10:49:30;;;;;;;;;;;19.90;99.90;;;;;;5139414;27;20014;-79
2022/07/22 10:52:16;;;;;;;;;;;19.80;99.90;;;;;;5139490;27;20359;-79
2022/07/22 10:55:00;;;;;;;;;;;19.70;99.90;;;;;;5106230;27;19945;-79
2022/07/22 10:57:32;;;;;;;;;;;19.60;99.90;;;;;;5122477;27;19923;-79
2022/07/22 10:59:57;;;;;;;;;;;19.40;99.90;;;;;;5139467;27;20021;-79
2022/07/22 11:02:25;;;;;;;;;;;19.20;99.90;;;;;;5122304;27;19970;-79
2022/07/22 11:04:51;;;;;;;;;;;19.00;99.90;;;;;;5138999;27;20384;-79
2022/07/22 11:07:17;;;;;;;;;;;18.90;99.90;;;;;;5121992;27;19923;-79
2022/07/22 11:09:43;;;;;;;;;;;18.90;99.90;;;;;;5139107;27;19966;-78
2022/07/22 11:12:12;;;;;;;;;;;18.80;99.90;;;;;;5139097;27;20015;-78
2022/07/22 11:14:37;;;;;;;;;;;18.70;99.90;;;;;;5139176;27;19971;-78
2022/07/22 11:17:08;;;;;;;;;;;18.70;99.90;;;;;;5104098;27;19927;-79
2022/07/22 11:19:34;;;;;;;;;;;18.70;99.90;;;;;;5139406;27;19927;-79
2022/07/22 11:22:04;;;;;;;;;;;18.70;99.90;;;;;;5104767;27;20278;-79
2022/07/22 11:24:30;;;;;;;;;;;18.70;99.90;;;;;;5122308;27;19923;-78
2022/07/22 11:26:56;;;;;;;;;;;18.70;99.90;;;;;;5121620;27;19930;-80
2022/07/22 11:29:26;;;;;;;;;;;18.80;99.90;;;;;;5138727;27;20284;-78
2022/07/22 11:31:52;;;;;;;;;;;18.90;99.90;;;;;;5138699;27;19970;-79
2022/07/22 11:34:20;;;;;;;;;;;18.90;99.90;;;;;;5138924;27;20318;-78
2022/07/22 11:36:46;;;;;;;;;;;18.90;99.90;;;;;;5121679;27;20022;-79
2022/07/22 11:39:14;;;;;;;;;;;18.90;99.90;;;;;;5121282;27;20001;-79
2022/07/22 11:41:40;;;;;;;;;;;18.90;99.90;;;;;;5138791;27;19923;-78
2022/07/22 11:44:06;;;;;;;;;;;18.80;99.90;;;;;;5121499;27;19929;-79
2022/07/22 11:46:36;;;;;;;;;;;18.80;99.90;;;;;;5121597;27;20389;-79
2022/07/22 11:49:01;;;;;;;;;;;18.80;99.90;;;;;;5120964;27;20059;-79
2022/07/22 11:51:29;;;;;;;;;;;18.80;99.90;;;;;;5121385;27;19996;-78
2022/07/22 11:53:54;;;;;;;;;;;18.70;99.90;;;;;;5138312;27;19927;-79
2022/07/22 11:56:20;;;;;;;;;;;18.80;99.90;;;;;;5138460;27;19929;-79
2022/07/22 11:58:47;;;;;;;;;;;18.90;99.90;;;;;;5138484;27;19923;-79
2022/07/22 12:01:13;;;;;;;;;;;19.20;99.90;;;;;;5138220;27;20034;-79
2022/07/22 12:03:41;;;;;;;;;;;19.50;99.90;;;;;;5138350;27;19923;-79
2022/07/22 12:06:08;;;;;;;;;;;19.60;99.90;;;;;;5120929;27;19930;-79
2022/07/22 12:08:35;;;;;;;;;;;19.70;99.90;;;;;;5121080;27;19927;-79
2022/07/22 12:11:01;;;;;;;;;;;19.90;99.90;;;;;;5120902;27;19923;-80
2022/07/22 12:13:30;;;;;;;;;;;20.10;99.90;;;;;;5121083;27;19945;-79
2022/07/22 12:15:57;;;;;;;;;;;20.20;99.90;;;;;;5120226;27;19930;-81
2022/07/22 12:18:24;;;;;;;;;;;20.30;99.90;;;;;;5138015;27;19923;-79
2022/07/22 12:20:50;;;;;;;;;;;20.30;99.90;;;;;;5137983;27;19977;-79
2022/07/22 12:23:16;;;;;;;;;;;20.20;99.90;;;;;;5137790;27;20431;-79
2022/07/22 12:25:50;;;;;;;;;;;20.00;99.90;;;;;;5120978;27;19980;-79
2022/07/22 12:28:16;;;;;;;;;;;19.90;99.90;;;;;;5137608;27;19967;-79
2022/07/22 12:30:42;;;;;;;;;;;19.70;99.90;;;;;;5120719;27;20307;-79
2022/07/22 12:33:18;;;;;;;;;;;19.60;99.90;;;;;;5120418;27;19923;-79
2022/07/22 12:35:44;;;;;;;;;;;19.60;99.90;;;;;;5120559;27;19924;-79
2022/07/22 12:38:10;;;;;;;;;;;19.60;99.90;;;;;;5120274;27;20005;-79
2022/07/22 12:40:36;;;;;;;;;;;19.50;99.90;;;;;;5137771;27;19928;-79
2022/07/22 12:43:02;;;;;;;;;;;19.40;99.90;;;;;;5102974;27;20294;-79
2022/07/22 12:45:29;;;;;;;;;;;19.40;99.90;;;;;;5137769;27;19923;-79
2022/07/22 12:47:55;;;;;;;;;;;19.40;99.90;;;;;;5137386;27;19935;-79
2022/07/22 12:50:26;;;;;;;;;;;19.40;99.90;;;;;;5119636;27;20019;-79
2022/07/22 12:52:56;;;;;;;;;;;19.30;99.90;;;;;;5137303;27;20383;-80
2022/07/22 12:55:22;;;;;;;;;;;19.40;99.90;;;;;;5137122;27;19974;-79
2022/07/22 12:57:47;;;;;;;;;;;19.40;99.90;;;;;;5137217;27;19923;-79
2022/07/22 13:00:20;;;;;;;;;;;19.30;99.90;;;;;;5137017;27;19930;-79
2022/07/22 13:02:46;;;;;;;;;;;19.20;99.90;;;;;;5119785;27;20389;-78
2022/07/22 13:05:12;;;;;;;;;;;19.00;99.90;;;;;;5119926;27;19923;-79
2022/07/22 13:07:38;;;;;;;;;;;19.00;99.90;;;;;;5119855;27;19924;-79
2022/07/22 13:10:04;;;;;;;;;;;19.00;99.90;;;;;;5136607;27;20382;-80
2022/07/22 13:12:29;;;;;;;;;;;18.90;99.90;;;;;;5102950;27;19923;-79
2022/07/22 13:14:55;;;;;;;;;;;18.80;99.90;;;;;;5136758;27;19930;-80
2022/07/22 13:17:21;;;;;;;;;;;18.70;99.90;;;;;;5119869;27;19927;-79
2022/07/22 13:19:46;;;;;;;;;;;18.60;99.90;;;;;;5119911;27;19923;-78
2022/07/22 13:22:12;;;;;;;;;;;18.50;99.90;;;;;;5119673;27;19930;-79
2022/07/22 13:24:37;;;;;;;;;;;18.40;99.90;;;;;;5137020;27;20319;-80
2022/07/22 13:27:03;;;;;;;;;;;18.40;99.90;;;;;;5136936;27;19923;-79
2022/07/22 13:29:29;;;;;;;;;;;18.50;99.90;;;;;;5119399;27;19946;-79
2022/07/22 13:31:54;;;;;;;;;;;18.50;99.90;;;;;;5136874;27;19927;-78
2022/07/22 13:34:20;;;;;;;;;;;18.40;99.90;;;;;;5136689;27;19945;-79
2022/07/22 13:36:45;;;;;;;;;;;18.50;99.90;;;;;;5119739;27;19923;-79
2022/07/22 13:39:11;;;;;;;;;;;18.60;99.90;;;;;;5119432;27;19968;-79
2022/07/22 13:41:37;;;;;;;;;;;18.70;99.90;;;;;;5119614;27;19923;-79
2022/07/22 13:44:02;;;;;;;;;;;18.80;99.90;;;;;;5119733;27;19923;-80
2022/07/22 13:46:28;;;;;;;;;;;18.90;99.90;;;;;;5136797;27;20439;-79
2022/07/22 13:48:54;;;;;;;;;;;19.00;99.90;;;;;;5119447;27;19923;-79
2022/07/22 13:51:19;;;;;;;;;;;19.00;99.90;;;;;;5136212;27;19923;-79
2022/07/22 13:53:45;;;;;;;;;;;18.90;99.90;;;;;;5119741;27;19923;-79
2022/07/22 13:56:11;;;;;;;;;;;19.00;99.90;;;;;;5119339;27;20389;-80
2022/07/22 13:58:37;;;;;;;;;;;19.10;99.90;;;;;;5136565;27;20018;-79
2022/07/22 14:01:03;;;;;;;;;;;19.10;99.90;;;;;;5119636;27;19923;-79
2022/07/22 14:03:29;;;;;;;;;;;19.10;99.90;;;;;;5121402;27;20377;-79
2022/07/22 14:05:54;;;;;;;;;;;19.10;99.90;;;;;;5105839;27;19984;-80
2022/07/22 14:08:20;;;;;;;;;;;19.00;99.90;;;;;;5123171;27;19923;-79
2022/07/22 14:10:45;;;;;;;;;;;18.70;99.90;;;;;;5123409;27;19968;-80